CheckWX is a tool to help pilots better visualize weather data.  It is not intended as a substitute for an official pre-flight weather briefing.

01:46:47 UTC

K1YT METAR
Yagabond Aaf
Yagabond Aaf, Washington, USA
Current

49 mins ago

K1YT 200058Z AUTO 28004KT 10SM CLR 26/M01 A2997 RMK AO2 SLPNO T02551011 $
Observed
Jul-20 @ 00:58 UTC
Wind
  • 280° at 4 KTS
Visibility
10 SM
Flight Rules
VFR
Cloud Levels
  • Clear skies
Temperature
26°C / 79°F
Dewpoint
-1°C / 30°F
Humidity
17%
Altimeter
29.97" Hg
Pressure
1014.92 hPa
Previous

2 hours ago

K1YT 192358Z AUTO 27006KT 10SM CLR 25/M02 A2998 RMK AO2 SLPNO T02511023 10257 20201 57010 $
Observed
Jul-19 @ 23:58 UTC
Wind
  • 270° at 6 KTS
Visibility
10 SM
Flight Rules
VFR
Cloud Levels
  • Clear skies
Temperature
25°C / 77°F
Dewpoint
-2°C / 28°F
Humidity
17%
Altimeter
29.98" Hg
Pressure
1015.22 hPa
Previous

3 hours ago

K1YT 192258Z AUTO 25004KT 10SM CLR 26/M01 A2999 RMK AO2 SLPNO T02551013 $
Observed
Jul-19 @ 22:58 UTC
Wind
  • 250° at 4 KTS
Visibility
10 SM
Flight Rules
VFR
Cloud Levels
  • Clear skies
Temperature
26°C / 79°F
Dewpoint
-1°C / 30°F
Humidity
17%
Altimeter
29.99" Hg
Pressure
1015.62 hPa